createdAt,value
2023-04-24T00:02:17.985Z,93.90
2023-04-24T00:04:46.861Z,93.80
2023-04-24T00:07:15.457Z,93.90
2023-04-24T00:09:43.876Z,94.00
2023-04-24T00:12:12.404Z,93.90
2023-04-24T00:14:40.645Z,94.00
2023-04-24T00:17:10.314Z,94.10
2023-04-24T00:19:38.629Z,94.00
2023-04-24T00:22:06.969Z,93.90
2023-04-24T00:24:35.409Z,94.00
2023-04-24T00:27:03.724Z,94.00
2023-04-24T00:29:31.976Z,93.80
2023-04-24T00:32:00.414Z,94.10
2023-04-24T00:34:30.110Z,93.80
2023-04-24T00:36:58.529Z,94.10
2023-04-24T00:39:26.847Z,94.00
2023-04-24T00:41:56.316Z,93.70
2023-04-24T00:44:24.666Z,94.10
2023-04-24T00:46:55.846Z,94.10
2023-04-24T00:49:24.255Z,94.30
2023-04-24T00:51:54.983Z,94.00
2023-04-24T00:54:23.340Z,94.00
2023-04-24T00:56:53.562Z,94.00
2023-04-24T00:59:22.087Z,94.00
2023-04-24T01:01:50.493Z,94.00
2023-04-24T01:04:19.411Z,94.10
2023-04-24T01:06:47.751Z,94.00
2023-04-24T01:09:17.545Z,94.10
2023-04-24T01:11:45.828Z,94.20
2023-04-24T01:14:14.133Z,94.30
2023-04-24T01:16:43.185Z,94.30
2023-04-24T01:19:12.177Z,94.20
2023-04-24T01:21:40.831Z,94.30
2023-04-24T01:24:10.516Z,94.30
2023-04-24T01:26:40.234Z,94.30
2023-04-24T01:29:08.618Z,94.30
2023-04-24T01:31:37.067Z,94.40
2023-04-24T01:34:05.705Z,94.50
2023-04-24T01:36:34.214Z,94.40
2023-04-24T01:39:02.732Z,94.60
2023-04-24T01:41:32.528Z,94.60
2023-04-24T01:44:00.908Z,94.50
2023-04-24T01:46:29.295Z,94.50
2023-04-24T01:49:01.018Z,94.60
2023-04-24T01:51:29.454Z,94.70
2023-04-24T01:53:59.033Z,94.70
2023-04-24T01:56:27.869Z,94.70
2023-04-24T01:58:58.511Z,94.60
2023-04-24T02:01:26.912Z,94.60
2023-04-24T02:03:55.273Z,94.80
2023-04-24T02:06:23.569Z,94.90
2023-04-24T02:08:51.830Z,95.10
2023-04-24T02:11:20.087Z,95.10
2023-04-24T02:13:48.693Z,95.20
2023-04-24T02:16:18.375Z,95.30
2023-04-24T02:18:46.683Z,95.30
2023-04-24T02:21:15.033Z,95.30
2023-04-24T05:40:16.950Z,96.20
2023-04-24T05:42:45.343Z,95.90
2023-04-24T05:45:17.665Z,96.30
2023-04-24T05:47:46.139Z,95.70
2023-04-24T05:50:14.786Z,95.80
2023-04-24T05:52:43.225Z,95.80
2023-04-24T05:55:25.989Z,96.10
2023-04-24T05:57:56.197Z,95.90
2023-04-24T06:00:25.989Z,95.90
2023-04-24T06:03:02.246Z,95.60
2023-04-24T06:05:31.276Z,95.90
2023-04-24T06:07:59.957Z,96.20
2023-04-24T06:10:35.047Z,96.20
2023-04-24T06:13:03.924Z,96.50
2023-04-24T06:15:33.493Z,96.30
2023-04-24T06:18:07.506Z,96.50
2023-04-24T06:20:36.428Z,96.70
2023-04-24T06:23:04.797Z,96.20
2023-04-24T06:25:36.639Z,96.60
2023-04-24T06:28:05.208Z,97.20
2023-04-24T06:30:33.731Z,97.50
2023-04-24T06:33:12.848Z,97.20
2023-04-24T06:35:51.350Z,97.70
2023-04-24T06:38:19.819Z,97.90
2023-04-24T06:40:49.512Z,97.70
2023-04-24T06:43:19.016Z,98.20
2023-04-24T06:45:48.271Z,98.20
2023-04-24T06:48:16.626Z,97.70
2023-04-24T06:50:44.981Z,97.10
2023-04-24T06:53:15.485Z,97.20
2023-04-24T06:55:44.403Z,96.80
2023-04-24T06:58:14.353Z,96.80
2023-04-24T07:00:42.773Z,96.80
2023-04-24T07:03:11.210Z,96.70
2023-04-24T07:05:39.652Z,96.80
2023-04-24T07:08:09.745Z,96.60
2023-04-24T07:10:38.057Z,96.70
2023-04-24T07:13:08.098Z,96.70
2023-04-24T07:15:37.864Z,97.00
2023-04-24T07:18:06.544Z,96.50
2023-04-24T07:20:36.752Z,96.70
2023-04-24T07:23:05.150Z,96.70
2023-04-24T07:25:34.476Z,96.70
2023-04-24T07:28:02.889Z,96.70
2023-04-24T07:30:31.202Z,96.80
2023-04-24T07:33:00.949Z,96.80
2023-04-24T07:35:29.536Z,96.90
2023-04-24T07:37:58.059Z,96.80
2023-04-24T07:40:26.353Z,96.40
2023-04-24T07:42:54.658Z,96.60
2023-04-24T07:45:24.219Z,96.80
2023-04-24T07:47:53.078Z,96.70
2023-04-24T07:50:23.204Z,96.80
2023-04-24T07:52:51.536Z,97.50
2023-04-24T07:55:22.542Z,98.00
2023-04-24T07:57:52.307Z,98.30
2023-04-24T08:00:20.912Z,98.90
2023-04-24T08:02:49.374Z,99.90
2023-04-24T08:05:18.103Z,99.90
2023-04-24T08:07:49.888Z,99.90
2023-04-24T08:10:18.482Z,99.90
2023-04-24T08:12:46.718Z,99.90
2023-04-24T08:15:14.962Z,99.90
2023-04-24T08:17:43.443Z,99.90
2023-04-24T08:20:14.769Z,99.90
2023-04-24T08:22:43.350Z,99.90
2023-04-24T08:25:13.286Z,99.90
2023-04-24T08:27:41.659Z,99.90
2023-04-24T08:30:10.303Z,99.90
2023-04-24T08:32:40.498Z,99.90
2023-04-24T08:35:10.378Z,99.90
2023-04-24T08:37:39.032Z,99.90
2023-04-24T08:40:08.982Z,99.90
2023-04-24T08:42:39.455Z,99.90
2023-04-24T08:45:08.494Z,99.90
2023-04-24T08:47:38.050Z,99.90
2023-04-24T08:50:08.322Z,99.90
2023-04-24T08:52:37.017Z,99.60
2023-04-24T08:55:05.573Z,99.40
2023-04-24T08:57:34.717Z,99.30
2023-04-24T09:00:05.802Z,99.10
2023-04-24T09:02:36.348Z,99.20
2023-04-24T09:05:06.475Z,98.20
2023-04-24T09:07:37.930Z,98.40
2023-04-24T09:10:06.614Z,98.70
2023-04-24T09:12:35.179Z,98.90
2023-04-24T09:15:05.647Z,98.80
2023-04-24T09:17:34.590Z,98.90
2023-04-24T09:20:02.925Z,98.90
2023-04-24T09:22:32.112Z,98.80
2023-04-24T09:25:06.615Z,98.60
2023-04-24T09:27:35.332Z,98.60
2023-04-24T09:30:05.475Z,98.10
2023-04-24T09:32:33.913Z,98.50
2023-04-24T09:35:10.354Z,98.90
2023-04-24T09:37:39.585Z,98.50
2023-04-24T09:40:18.335Z,98.20
2023-04-24T09:42:47.670Z,98.80
2023-04-24T09:45:17.527Z,98.70
2023-04-24T09:47:45.882Z,98.50
2023-04-24T09:50:15.458Z,98.10
2023-04-24T09:52:48.152Z,97.70
2023-04-24T09:55:19.341Z,97.80
2023-04-24T09:57:51.941Z,97.90
2023-04-24T10:00:23.907Z,97.60
2023-04-24T10:02:53.735Z,97.50
2023-04-24T10:05:25.151Z,97.60
2023-04-24T10:07:53.833Z,97.00
2023-04-24T10:10:22.300Z,97.40
2023-04-24T10:12:51.408Z,96.80
2023-04-24T10:15:22.400Z,96.90
2023-04-24T10:17:54.487Z,97.30
2023-04-24T10:20:23.380Z,96.70
2023-04-24T10:22:54.668Z,97.10
2023-04-24T10:25:23.935Z,96.60
2023-04-24T10:27:53.719Z,96.80
2023-04-24T10:30:22.267Z,96.40
2023-04-24T10:32:50.856Z,96.50
2023-04-24T10:35:23.367Z,96.20
2023-04-24T10:37:53.316Z,96.00
2023-04-24T10:40:27.486Z,96.30
2023-04-24T10:42:57.466Z,96.70
2023-04-24T10:45:27.240Z,95.90
2023-04-24T10:48:04.358Z,96.00
2023-04-24T10:50:46.237Z,95.90
2023-04-24T10:53:15.810Z,95.90
2023-04-24T10:55:48.129Z,95.60
2023-04-24T10:58:18.943Z,95.70
2023-04-24T11:00:57.523Z,94.60
2023-04-24T11:03:27.147Z,95.20
2023-04-24T11:06:01.940Z,95.10
2023-04-24T11:08:31.618Z,95.40
2023-04-24T11:11:01.134Z,95.80
2023-04-24T11:13:30.663Z,95.70
2023-04-24T11:16:14.994Z,96.00
2023-04-24T11:18:46.385Z,96.20
2023-04-24T11:21:18.677Z,96.30
2023-04-24T11:23:47.242Z,96.50
2023-04-24T11:26:19.362Z,96.10
2023-04-24T11:28:48.718Z,95.70
2023-04-24T11:31:36.043Z,95.60
2023-04-24T11:34:14.935Z,95.60
2023-04-24T11:36:46.488Z,95.80
2023-04-24T11:39:14.892Z,95.80
2023-04-24T11:41:43.328Z,96.20
2023-04-24T11:44:12.485Z,96.60
2023-04-24T11:46:42.050Z,96.70
2023-04-24T11:49:10.754Z,97.10
2023-04-24T11:51:52.166Z,97.50
2023-04-24T11:54:24.539Z,97.90
2023-04-24T11:56:53.019Z,98.60
2023-04-24T11:59:21.288Z,99.00
2023-04-24T12:01:52.171Z,99.60
2023-04-24T12:04:20.730Z,99.90
2023-04-24T12:07:01.523Z,99.90
2023-04-24T12:09:31.394Z,99.90
2023-04-24T12:12:00.796Z,99.90
2023-04-24T12:14:29.059Z,99.90
2023-04-24T12:16:58.319Z,99.90
2023-04-24T12:19:26.888Z,99.90
2023-04-24T12:22:01.951Z,99.90
2023-04-24T12:24:37.676Z,99.90
2023-04-24T12:27:05.988Z,99.90
2023-04-24T12:29:34.427Z,99.90
2023-04-24T12:32:02.689Z,99.90
2023-04-24T12:34:31.045Z,99.90
2023-04-24T12:37:11.627Z,99.90
2023-04-24T12:39:41.593Z,99.90
2023-04-24T12:42:09.896Z,99.90
2023-04-24T12:44:38.337Z,99.90
2023-04-24T12:47:08.693Z,99.90
2023-04-24T12:49:37.063Z,99.90
2023-04-24T12:52:05.299Z,99.90
2023-04-24T12:54:34.815Z,99.90
2023-04-24T12:57:05.023Z,99.90
2023-04-24T12:59:33.439Z,99.90
2023-04-24T13:02:01.819Z,99.90
2023-04-24T13:04:30.277Z,99.90
2023-04-24T13:06:58.722Z,99.90
2023-04-24T13:09:27.105Z,99.90
2023-04-24T13:11:55.497Z,99.90
2023-04-24T13:14:25.167Z,99.90
2023-04-24T13:16:53.687Z,99.90
2023-04-24T13:19:21.936Z,99.90
2023-04-24T13:21:50.229Z,99.90
2023-04-24T13:24:18.590Z,99.90
2023-04-24T13:26:46.854Z,99.90
2023-04-24T13:29:15.198Z,99.90
2023-04-24T13:31:44.932Z,99.90
2023-04-24T13:34:13.340Z,99.90
2023-04-24T13:36:41.800Z,99.90
2023-04-24T13:39:10.232Z,99.90
2023-04-24T13:41:38.633Z,99.90
2023-04-24T13:44:07.329Z,99.90
2023-04-24T13:46:35.807Z,99.90
2023-04-24T13:49:05.834Z,99.90
2023-04-24T13:51:34.977Z,99.90
2023-04-24T13:54:03.342Z,99.90
2023-04-24T13:56:31.955Z,99.90
2023-04-24T14:04:01.010Z,99.90
2023-04-24T14:06:31.027Z,99.90
2023-04-24T14:08:59.798Z,98.80
2023-04-24T14:11:28.489Z,98.90
2023-04-24T14:13:58.502Z,98.60
2023-04-24T14:18:56.573Z,98.20
2023-04-24T14:21:24.875Z,98.10
2023-04-24T14:23:54.694Z,97.50
2023-04-24T14:26:24.155Z,97.00
2023-04-24T14:28:58.054Z,97.00
2023-04-24T14:31:32.254Z,96.40
2023-04-24T14:34:00.679Z,96.20
2023-04-24T14:36:29.092Z,96.30
2023-04-24T14:38:58.927Z,96.30
2023-04-24T14:41:27.205Z,96.70
2023-04-24T14:43:55.502Z,96.60
2023-04-24T14:46:24.070Z,97.20
2023-04-24T14:48:52.420Z,97.30
2023-04-24T14:51:20.760Z,97.40
2023-04-24T14:53:49.434Z,97.40
2023-04-24T14:56:19.569Z,97.70
2023-04-24T14:58:48.075Z,98.30
2023-04-24T15:01:17.828Z,98.30
2023-04-24T15:03:48.098Z,98.30
2023-04-24T15:06:16.739Z,98.90
2023-04-24T15:08:48.664Z,98.80
2023-04-24T15:11:19.933Z,98.60
2023-04-24T15:13:48.578Z,98.40
2023-04-24T15:16:17.220Z,98.10
2023-04-24T15:18:45.753Z,98.10
2023-04-24T15:21:14.407Z,98.10
2023-04-24T15:23:43.170Z,98.60
2023-04-24T15:26:11.692Z,98.90
2023-04-24T15:28:41.715Z,99.20
2023-04-24T15:31:10.229Z,99.50
2023-04-24T15:33:38.567Z,99.50
2023-04-24T15:38:35.753Z,99.90
2023-04-24T15:41:04.076Z,99.90
2023-04-24T15:43:35.227Z,99.90
2023-04-24T15:46:05.485Z,99.90
2023-04-24T15:48:34.438Z,99.90
2023-04-24T15:51:02.799Z,99.90
2023-04-24T15:53:31.247Z,99.90
2023-04-24T15:55:59.856Z,99.90
2023-04-24T15:58:28.124Z,99.90
2023-04-24T16:00:56.646Z,99.90
2023-04-24T16:03:26.694Z,99.90
2023-04-24T16:05:55.392Z,99.90
2023-04-24T16:08:23.820Z,99.90
2023-04-24T16:10:52.795Z,99.90
2023-04-24T17:35:42.644Z,99.90
2023-04-24T17:38:11.203Z,99.90
2023-04-24T17:40:40.475Z,99.90
2023-04-24T17:43:08.845Z,99.90
2023-04-24T18:30:27.109Z,99.90
2023-04-24T18:32:55.871Z,99.90
2023-04-24T18:35:24.505Z,99.90
2023-04-24T18:37:54.430Z,99.90
2023-04-24T18:40:23.147Z,99.90
2023-04-24T18:42:51.980Z,99.90
2023-04-24T18:45:20.775Z,99.90
2023-04-24T18:47:54.203Z,99.90
2023-04-24T18:50:22.607Z,99.90
2023-04-24T18:52:51.332Z,99.90
2023-04-24T18:55:19.929Z,99.90
2023-04-24T18:57:48.228Z,99.90
2023-04-24T19:00:16.665Z,99.90
2023-04-24T19:02:45.150Z,99.90
2023-04-24T19:05:14.948Z,99.90
2023-04-24T19:07:43.281Z,99.90
2023-04-24T19:10:12.102Z,99.90
2023-04-24T19:12:40.445Z,99.90
2023-04-24T19:15:11.824Z,99.90
2023-04-24T19:17:40.517Z,99.90
2023-04-24T19:20:10.183Z,99.90
2023-04-24T19:22:40.022Z,99.90
2023-04-24T19:25:08.670Z,99.90
2023-04-24T19:27:37.196Z,99.90
2023-04-24T19:30:05.996Z,99.90
2023-04-24T19:32:34.289Z,99.90
2023-04-24T19:35:02.598Z,99.90
2023-04-24T19:37:32.332Z,99.90
2023-04-24T19:40:02.259Z,99.90
2023-04-24T19:42:42.630Z,99.90
2023-04-24T19:45:12.709Z,99.90
2023-04-24T19:47:41.269Z,99.90
2023-04-24T19:50:09.847Z,99.90
2023-04-24T19:52:38.444Z,99.90
2023-04-24T19:55:09.008Z,99.90
2023-04-24T19:57:37.331Z,99.90
2023-04-24T20:00:06.188Z,99.90
2023-04-24T20:02:35.556Z,99.90
2023-04-24T20:05:04.192Z,99.90
2023-04-24T20:07:33.719Z,99.90
2023-04-24T20:10:02.014Z,99.90
2023-04-24T20:12:31.873Z,99.90
2023-04-24T20:15:00.167Z,99.90
2023-04-24T20:17:28.483Z,99.90
2023-04-24T20:19:56.983Z,99.90
2023-04-24T20:22:25.421Z,99.90
2023-04-24T20:24:53.711Z,99.90
2023-04-24T20:27:22.201Z,99.90
2023-04-24T20:29:51.917Z,99.90
2023-04-24T20:32:20.539Z,99.90
2023-04-24T20:34:48.933Z,99.90
2023-04-24T20:37:17.416Z,99.90
2023-04-24T20:39:46.443Z,99.90
2023-04-24T20:42:16.782Z,99.90
2023-04-24T20:44:45.905Z,99.90
2023-04-24T20:47:15.946Z,99.90
2023-04-24T20:49:44.449Z,99.90
2023-04-24T20:52:12.761Z,99.90
2023-04-24T20:54:42.032Z,99.90
2023-04-24T20:57:10.616Z,99.90
2023-04-24T20:59:39.436Z,99.90
2023-04-24T21:02:08.313Z,99.90
2023-04-24T21:04:39.963Z,99.90
2023-04-24T21:07:10.397Z,99.90
2023-04-24T21:09:38.935Z,99.90
2023-04-24T21:12:07.455Z,99.90
2023-04-24T21:14:35.732Z,99.90
2023-04-24T21:17:04.161Z,99.90
2023-04-24T21:19:32.493Z,99.90
2023-04-24T21:22:02.157Z,99.90
2023-04-24T21:24:30.564Z,99.90
2023-04-24T21:26:58.912Z,99.90
2023-04-24T21:29:27.495Z,99.90
2023-04-24T21:31:55.967Z,99.90
2023-04-24T21:34:24.307Z,99.90
2023-04-24T21:36:52.751Z,99.90
2023-04-24T21:39:22.484Z,99.90
2023-04-24T21:41:50.782Z,99.90
2023-04-24T21:44:19.063Z,99.90
2023-04-24T21:46:47.537Z,99.90
2023-04-24T21:49:16.047Z,99.90
2023-04-24T21:51:44.307Z,99.90
2023-04-24T21:54:12.667Z,99.90
2023-04-24T21:56:42.679Z,99.90
2023-04-24T21:59:11.235Z,99.90
2023-04-24T22:01:39.726Z,99.90
2023-04-24T22:04:08.177Z,99.90
2023-04-24T22:06:38.275Z,99.90
2023-04-24T22:09:07.726Z,99.90
2023-04-24T22:11:38.042Z,99.90
2023-04-24T22:14:07.725Z,99.90
2023-04-24T22:16:36.138Z,99.90
2023-04-24T22:19:05.105Z,99.90
2023-04-24T22:21:33.516Z,99.90
2023-04-24T22:24:01.974Z,99.90
2023-04-24T22:26:30.451Z,99.90
2023-04-24T22:28:58.758Z,99.90
2023-04-24T22:31:28.511Z,99.90
2023-04-24T22:38:55.122Z,99.90
2023-04-24T22:41:23.494Z,99.90
2023-04-24T22:43:51.948Z,99.90
2023-04-24T22:46:20.422Z,99.90
2023-04-24T22:48:50.273Z,99.90
2023-04-24T22:51:18.973Z,99.90
2023-04-24T22:53:49.768Z,99.90
2023-04-24T22:56:20.390Z,99.90
2023-04-24T22:58:48.797Z,99.90
2023-04-24T23:01:17.587Z,99.90
2023-04-24T23:03:46.407Z,99.90
2023-04-24T23:06:16.397Z,99.90
2023-04-24T23:08:44.819Z,99.90
2023-04-24T23:11:13.353Z,99.90
2023-04-24T23:13:41.857Z,99.90
2023-04-24T23:16:10.370Z,99.90
2023-04-24T23:18:38.837Z,99.90
2023-04-24T23:21:07.910Z,99.90
2023-04-24T23:23:37.646Z,99.90
2023-04-24T23:26:06.314Z,99.90
2023-04-24T23:28:36.523Z,99.90
2023-04-24T23:31:04.884Z,99.90
